| time (UTC) | temp F | wind direction | speed MPH | gust MPH | rain 1hr in | rain 24hr in | rain mn in | humidity % | barometer mb |
| 20260903062127 | 80 | 187 | 1.0 | 5.0 | 0.00 | 0.39 | 0.00 | 97 | 1013.0 |
| 20260903061600 | 80 | 163 | 1.0 | 5.0 | 0.00 | 0.39 | 0.00 | 97 | 1013.2 |
| 20260903061058 | 80 | 169 | 1.0 | 4.0 | 0.00 | 0.39 | 0.00 | 97 | 1013.2 |
| 20260903060543 | 80 | 170 | 0.0 | 2.0 | 0.00 | 0.39 | 0.00 | 97 | 1013.3 |
| 20260903060043 | 80 | 184 | 0.0 | 1.0 | 0.00 | 0.39 | 0.00 | 97 | 1013.4 |
| 20260903055545 | 80 | 194 | 0.0 | 2.0 | 0.00 | 0.39 | 0.00 | 97 | 1013.5 |
| 20260903055042 | 80 | 194 | 0.0 | 2.0 | 0.00 | 0.39 | 0.00 | 97 | 1013.6 |
| 20260903054540 | 80 | 191 | 0.0 | 2.0 | 0.00 | 0.39 | 0.00 | 97 | 1013.7 |
| 20260903054012 | 80 | 314 | 0.0 | 1.0 | 0.00 | 0.39 | 0.00 | 97 | 1013.9 |
| 20260903053510 | 80 | 317 | 0.0 | 1.0 | 0.00 | 0.39 | 0.00 | 97 | 1014.0 |
| 20260903052944 | 80 | 317 | 0.0 | 1.0 | 0.00 | 0.39 | 0.00 | 97 | 1014.0 |
| 20260903052417 | 80 | 317 | 0.0 | 1.0 | 0.00 | 0.39 | 0.00 | 97 | 1014.0 |
| 20260903051913 | 80 | 317 | 0.0 | 1.0 | 0.00 | 0.39 | 0.00 | 97 | 1014.1 |
| 20260903051347 | 79 | 317 | 0.0 | 0.0 | 0.00 | 0.39 | 0.00 | 97 | 1014.2 |
| 20260903050843 | 79 | 317 | 0.0 | 0.0 | 0.00 | 0.39 | 0.00 | 97 | 1014.3 |
| 20260903050346 | 79 | 317 | 0.0 | 0.0 | 0.00 | 0.39 | 0.00 | 97 | 1014.3 |
| 20260903045819 | 79 | 317 | 0.0 | 1.0 | 0.00 | 0.39 | 0.39 | 97 | 1014.3 |
| 20260903045317 | 79 | 317 | 0.0 | 1.0 | 0.00 | 0.39 | 0.39 | 97 | 1014.3 |
| 20260903044814 | 79 | 317 | 0.0 | 1.0 | 0.00 | 0.39 | 0.39 | 97 | 1014.3 |
| 20260903044310 | 80 | 317 | 0.0 | 2.0 | 0.00 | 0.39 | 0.39 | 96 | 1014.3 |
| 20260903043745 | 80 | 318 | 1.0 | 4.0 | 0.00 | 0.39 | 0.39 | 96 | 1014.5 |
| 20260903043232 | 80 | 316 | 1.0 | 4.0 | 0.00 | 0.39 | 0.39 | 96 | 1014.6 |
| 20260903042735 | 81 | 192 | 0.0 | 1.0 | 0.00 | 0.39 | 0.39 | 97 | 1014.5 |
| 20260903042208 | 80 | 192 | 0.0 | 1.0 | 0.00 | 0.39 | 0.39 | 97 | 1014.5 |
| 20260903041705 | 80 | 191 | 0.0 | 1.0 | 0.00 | 0.39 | 0.39 | 97 | 1014.5 |
| 20260903041159 | 80 | 191 | 0.0 | 1.0 | 0.00 | 0.39 | 0.39 | 97 | 1014.4 |
| 20260903040656 | 80 | 191 | 0.0 | 1.0 | 0.00 | 0.39 | 0.39 | 97 | 1014.3 |
| 20260903040152 | 80 | 191 | 0.0 | 4.0 | 0.00 | 0.39 | 0.39 | 97 | 1014.2 |
| 20260903035648 | 79 | 191 | 0.0 | 4.0 | 0.00 | 0.39 | 0.39 | 97 | 1014.0 |
| 20260903035146 | 79 | 95 | 0.0 | 0.0 | 0.00 | 0.39 | 0.39 | 96 | 1013.9 |
| 20260903034620 | 79 | 95 | 0.0 | 0.0 | 0.00 | 0.39 | 0.39 | 96 | 1013.9 |
| 20260903034116 | 78 | 95 | 0.0 | 0.0 | 0.00 | 0.39 | 0.39 | 96 | 1013.9 |
| 20260903033549 | 78 | 95 | 0.0 | 0.0 | 0.00 | 0.39 | 0.39 | 96 | 1013.8 |
| 20260903033047 | 78 | 95 | 0.0 | 0.0 | 0.00 | 0.39 | 0.39 | 96 | 1013.8 |
| 20260903032743 | 78 | 95 | 0.0 | 0.0 | 0.00 | 0.39 | 0.39 | 96 | 1013.8 |
| 20260903031953 | 79 | 95 | 0.0 | 0.0 | 0.00 | 0.39 | 0.39 | 96 | 1013.8 |
| 20260903031449 | 79 | 95 | 0.0 | 0.0 | 0.00 | 0.39 | 0.39 | 96 | 1013.8 |
| 20260903030924 | 79 | 95 | 0.0 | 0.0 | 0.00 | 0.39 | 0.39 | 95 | 1013.8 |
| 20260903030357 | 79 | 95 | 0.0 | 0.0 | 0.01 | 0.39 | 0.39 | 96 | 1013.6 |
| 20260903025854 | 78 | 96 | 0.0 | 0.0 | 0.01 | 0.39 | 0.39 | 95 | 1013.5 |
| 20260903025327 | 78 | 96 | 0.0 | 0.0 | 0.01 | 0.39 | 0.39 | 95 | 1013.4 |
| 20260903024824 | 78 | 96 | 0.0 | 2.0 | 0.01 | 0.39 | 0.39 | 95 | 1013.3 |
| 20260903024520 | 78 | 96 | 0.0 | 2.0 | 0.02 | 0.39 | 0.39 | 95 | 1013.2 |
| 20260903023731 | 78 | 115 | 0.0 | 1.0 | 0.05 | 0.39 | 0.39 | 95 | 1013.1 |
| 20260903023229 | 78 | 115 | 0.0 | 1.0 | 0.09 | 0.39 | 0.39 | 95 | 1013.0 |
| 20260903022701 | 78 | 115 | 0.0 | 1.0 | 0.25 | 0.39 | 0.39 | 95 | 1013.0 |
| 20260903022421 | 79 | 115 | 0.0 | 1.0 | 0.35 | 0.39 | 0.39 | 94 | 1012.9 |
| 20260903021631 | 79 | 115 | 0.0 | 2.0 | 0.37 | 0.39 | 0.39 | 94 | 1012.7 |
| 20260903021352 | 79 | 115 | 0.0 | 2.0 | 0.39 | 0.39 | 0.39 | 94 | 1012.7 |
| 20260903020603 | 79 | 114 | 0.0 | 2.0 | 0.38 | 0.38 | 0.38 | 94 | 1012.5 |
| 20260903020321 | 79 | 115 | 0.0 | 2.0 | 0.38 | 0.38 | 0.38 | 93 | 1012.4 |
| 20260903015546 | 79 | 111 | 0.0 | 2.0 | 0.38 | 0.38 | 0.38 | 93 | 1012.3 |
| 20260903015049 | 79 | 98 | 0.0 | 2.0 | 0.38 | 0.38 | 0.38 | 93 | 1012.1 |
| 20260903014536 | 79 | 118 | 1.0 | 6.0 | 0.38 | 0.38 | 0.38 | 92 | 1012.3 |
| 20260903014038 | 79 | 80 | 1.0 | 8.0 | 0.36 | 0.36 | 0.36 | 92 | 1012.5 |
| 20260903013511 | 80 | 172 | 1.0 | 8.0 | 0.31 | 0.31 | 0.31 | 91 | 1013.1 |
| 20260903013009 | 80 | 83 | 2.0 | 9.0 | 0.25 | 0.25 | 0.25 | 90 | 1013.0 |
| 20260903012506 | 81 | 44 | 3.0 | 9.0 | 0.07 | 0.07 | 0.09 | 89 | 1013.1 |
| 20260903011947 | 82 | 35 | 3.0 | 14.0 | 0.03 | 0.03 | 0.03 | 87 | 1013.2 |
| 20260903011413 | 83 | 97 | 4.0 | 14.0 | 0.00 | 0.00 | 0.00 | 86 | 1013.3 |
| 20260903010910 | 84 | 9 | 6.0 | 14.0 | 0.00 | 0.00 | 0.00 | 83 | 1012.9 |
| 20260903010344 | 85 | 5 | 5.0 | 12.0 | 0.00 | 0.00 | 0.00 | 81 | 1012.7 |
| 20260903005818 | 86 | 334 | 3.0 | 12.0 | 0.00 | 0.00 | 0.00 | 78 | 1012.7 |
| 20260903005251 | 87 | 42 | 3.0 | 12.0 | 0.00 | 0.00 | 0.00 | 75 | 1012.7 |
| 20260903005014 | 89 | 345 | 2.0 | 11.0 | 0.00 | 0.00 | 0.00 | 71 | 1012.6 |
| 20260903004223 | 90 | 219 | 1.0 | 8.0 | 0.00 | 0.00 | 0.00 | 66 | 1011.9 |
| 20260903003655 | 91 | 100 | 2.0 | 8.0 | 0.00 | 0.00 | 0.00 | 66 | 1011.4 |
| 20260903003153 | 91 | 136 | 1.0 | 5.0 | 0.00 | 0.00 | 0.00 | 66 | 1011.3 |
| 20260903002640 | 91 | 144 | 1.0 | 7.0 | 0.00 | 0.00 | 0.00 | 67 | 1011.3 |
| 20260903002143 | 91 | 142 | 1.0 | 7.0 | 0.00 | 0.00 | 0.00 | 67 | 1011.3 |
| 20260903001618 | 91 | 134 | 1.0 | 9.0 | 0.00 | 0.00 | 0.00 | 67 | 1011.1 |
| 20260903001604 | 92 | 115 | 2.0 | 10.0 | 0.00 | 0.00 | 0.00 | 67 | 1010.9 |
| 20260903000546 | 92 | 198 | 2.0 | 10.0 | 0.00 | 0.00 | 0.00 | 67 | 1010.9 |
| 20260903000032 | 92 | 109 | 2.0 | 9.0 | 0.00 | 0.00 | 0.00 | 66 | 1010.8 |
| 20260902235531 | 92 | 148 | 3.0 | 9.0 | 0.00 | 0.00 | 0.00 | 66 | 1010.8 |
| 20260902235254 | 92 | 178 | 2.0 | 8.0 | 0.00 | 0.00 | 0.00 | 66 | 1010.7 |
| 20260902234750 | 92 | 167 | 2.0 | 9.0 | 0.00 | 0.00 | 0.00 | 66 | 1010.7 |
| 20260902233959 | 92 | 169 | 2.0 | 7.0 | 0.00 | 0.00 | 0.00 | 65 | 1010.6 |
| 20260902233457 | 93 | 138 | 1.0 | 6.0 | 0.00 | 0.00 | 0.00 | 64 | 1010.5 |
| 20260902232930 | 93 | 156 | 1.0 | 6.0 | 0.00 | 0.00 | 0.00 | 64 | 1010.6 |
| 20260902232400 | 93 | 173 | 1.0 | 5.0 | 0.00 | 0.00 | 0.00 | 64 | 1010.7 |
| 20260902231857 | 93 | 202 | 2.0 | 7.0 | 0.00 | 0.00 | 0.00 | 63 | 1010.7 |
| 20260902231330 | 93 | 182 | 2.0 | 7.0 | 0.00 | 0.00 | 0.00 | 64 | 1010.7 |
| 20260902230826 | 93 | 192 | 2.0 | 7.0 | 0.00 | 0.00 | 0.00 | 63 | 1010.7 |
| 20260902230323 | 94 | 182 | 3.0 | 8.0 | 0.00 | 0.00 | 0.00 | 62 | 1010.6 |
| 20260902225820 | 94 | 179 | 3.0 | 8.0 | 0.00 | 0.00 | 0.00 | 62 | 1010.6 |
| 20260902225300 | 94 | 205 | 2.0 | 7.0 | 0.00 | 0.00 | 0.00 | 62 | 1010.4 |
| 20260902224758 | 94 | 300 | 2.0 | 8.0 | 0.00 | 0.00 | 0.00 | 62 | 1010.6 |
| 20260902224259 | 94 | 171 | 2.0 | 8.0 | 0.00 | 0.01 | 0.00 | 62 | 1010.6 |
| 20260902223756 | 95 | 167 | 2.0 | 9.0 | 0.00 | 0.03 | 0.00 | 61 | 1010.7 |
| 20260902223256 | 95 | 130 | 2.0 | 9.0 | 0.00 | 0.03 | 0.00 | 61 | 1010.7 |
| 20260902222732 | 95 | 151 | 1.0 | 7.0 | 0.00 | 0.03 | 0.00 | 62 | 1010.7 |
| 20260902222227 | 95 | 196 | 2.0 | 9.0 | 0.00 | 0.03 | 0.00 | 61 | 1010.7 |
| 20260902221950 | 96 | 150 | 2.0 | 9.0 | 0.00 | 0.03 | 0.00 | 60 | 1010.7 |
| 20260902221159 | 96 | 198 | 3.0 | 9.0 | 0.00 | 0.03 | 0.00 | 60 | 1010.7 |
| 20260902220634 | 96 | 130 | 2.0 | 9.0 | 0.00 | 0.03 | 0.00 | 60 | 1010.8 |
| 20260902220107 | 96 | 162 | 2.0 | 7.0 | 0.00 | 0.03 | 0.00 | 61 | 1010.7 |
| 20260902215806 | 96 | 169 | 3.0 | 7.0 | 0.00 | 0.03 | 0.00 | 60 | 1010.7 |
| 20260902215037 | 96 | 148 | 3.0 | 10.0 | 0.00 | 0.03 | 0.00 | 59 | 1010.7 |
| 20260902214533 | 95 | 134 | 2.0 | 10.0 | 0.00 | 0.03 | 0.00 | 59 | 1010.7 |
| 20260902214030 | 96 | 190 | 2.0 | 6.0 | 0.00 | 0.03 | 0.00 | 59 | 1010.8 |
| 20260902213503 | 96 | 180 | 2.0 | 8.0 | 0.00 | 0.03 | 0.00 | 59 | 1010.9 |
| 20260902213001 | 96 | 173 | 2.0 | 5.0 | 0.00 | 0.03 | 0.00 | 60 | 1010.8 |
| 20260902212433 | 96 | 163 | 1.0 | 4.0 | 0.00 | 0.03 | 0.00 | 60 | 1010.9 |
| 20260902211907 | 96 | 55 | 2.0 | 7.0 | 0.00 | 0.03 | 0.00 | 60 | 1010.9 |
| 20260902211348 | 96 | 162 | 2.0 | 7.0 | 0.00 | 0.03 | 0.00 | 59 | 1011.1 |
| 20260902210836 | 96 | 172 | 2.0 | 7.0 | 0.00 | 0.03 | 0.00 | 57 | 1011.1 |
| 20260902210334 | 97 | 175 | 1.0 | 4.0 | 0.00 | 0.03 | 0.00 | 59 | 1011.1 |
| 20260902205825 | 97 | 182 | 1.0 | 8.0 | 0.00 | 0.03 | 0.00 | 59 | 1011.1 |
| 20260902205321 | 97 | 209 | 1.0 | 8.0 | 0.00 | 0.03 | 0.00 | 57 | 1011.1 |
| 20260902205021 | 97 | 194 | 1.0 | 9.0 | 0.00 | 0.03 | 0.00 | 57 | 1011.1 |
| 20260902204253 | 97 | 188 | 2.0 | 9.0 | 0.00 | 0.03 | 0.00 | 57 | 1011.2 |
| 20260902203751 | 97 | 182 | 2.0 | 9.0 | 0.00 | 0.03 | 0.00 | 58 | 1011.3 |
| 20260902203223 | 98 | 170 | 2.0 | 9.0 | 0.00 | 0.03 | 0.00 | 56 | 1011.4 |
| 20260902202721 | 97 | 288 | 2.0 | 5.0 | 0.00 | 0.03 | 0.00 | 56 | 1011.5 |
| 20260902202217 | 98 | 166 | 1.0 | 5.0 | 0.00 | 0.03 | 0.00 | 57 | 1011.6 |
| 20260902201715 | 98 | 187 | 1.0 | 7.0 | 0.00 | 0.03 | 0.00 | 54 | 1011.6 |
| 20260902201203 | 97 | 229 | 1.0 | 7.0 | 0.00 | 0.03 | 0.00 | 59 | 1011.5 |
| 20260902200704 | 97 | 182 | 2.0 | 7.0 | 0.00 | 0.03 | 0.00 | 57 | 1011.5 |
| 20260902200137 | 97 | 180 | 2.0 | 7.0 | 0.00 | 0.03 | 0.00 | 56 | 1011.7 |
| 20260902195635 | 97 | 172 | 2.0 | 7.0 | 0.00 | 0.03 | 0.00 | 57 | 1011.7 |
| 20260902195133 | 97 | 218 | 1.0 | 6.0 | 0.00 | 0.03 | 0.00 | 56 | 1011.9 |
| 20260902194831 | 96 | 178 | 1.0 | 5.0 | 0.00 | 0.03 | 0.00 | 59 | 1012.1 |
| 20260902194104 | 96 | 219 | 1.0 | 5.0 | 0.00 | 0.03 | 0.00 | 57 | 1012.1 |
| 20260902193600 | 96 | 132 | 1.0 | 9.0 | 0.00 | 0.03 | 0.00 | 57 | 1012.2 |
| 20260902193034 | 96 | 191 | 1.0 | 9.0 | 0.00 | 0.03 | 0.00 | 57 | 1012.3 |
| 20260902192530 | 96 | 209 | 1.0 | 5.0 | 0.00 | 0.03 | 0.00 | 61 | 1012.3 |
| 20260902192004 | 96 | 191 | 2.0 | 7.0 | 0.00 | 0.03 | 0.00 | 59 | 1012.4 |
| 20260902191503 | 95 | 289 | 2.0 | 7.0 | 0.00 | 0.03 | 0.00 | 61 | 1012.5 |
| 20260902190956 | 95 | 271 | 2.0 | 11.0 | 0.00 | 0.03 | 0.00 | 61 | 1012.5 |
| 20260902190715 | 96 | 83 | 2.0 | 11.0 | 0.00 | 0.03 | 0.00 | 60 | 1012.6 |
| 20260902185926 | 95 | 163 | 1.0 | 7.0 | 0.00 | 0.03 | 0.00 | 62 | 1012.7 |
| 20260902185906 | 95 | 273 | 1.0 | 7.0 | 0.00 | 0.03 | 0.00 | 63 | 1012.7 |
| 20260902184920 | 95 | 178 | 2.0 | 9.0 | 0.00 | 0.03 | 0.00 | 63 | 1012.9 |
| 20260902184353 | 94 | 191 | 2.0 | 9.0 | 0.00 | 0.03 | 0.00 | 64 | 1013.0 |
| 20260902183851 | 94 | 235 | 1.0 | 7.0 | 0.00 | 0.03 | 0.00 | 66 | 1013.2 |
| 20260902183338 | 94 | 174 | 2.0 | 7.0 | 0.00 | 0.03 | 0.00 | 65 | 1013.2 |
| 20260902182842 | 94 | 230 | 1.0 | 6.0 | 0.00 | 0.03 | 0.00 | 64 | 1013.3 |
| 20260902182338 | 95 | 218 | 1.0 | 6.0 | 0.00 | 0.03 | 0.00 | 64 | 1013.4 |
| 20260902181835 | 94 | 178 | 1.0 | 7.0 | 0.00 | 0.03 | 0.00 | 66 | 1013.5 |
| 20260902181308 | 94 | 169 | 1.0 | 7.0 | 0.00 | 0.03 | 0.00 | 66 | 1013.5 |
| 20260902180805 | 94 | 290 | 1.0 | 7.0 | 0.00 | 0.03 | 0.00 | 66 | 1013.7 |
| 20260902180239 | 93 | 307 | 1.0 | 7.0 | 0.00 | 0.03 | 0.00 | 69 | 1013.7 |
| 20260902175712 | 93 | 284 | 2.0 | 7.0 | 0.00 | 0.03 | 0.00 | 67 | 1013.9 |
| 20260902175210 | 94 | 262 | 2.0 | 7.0 | 0.00 | 0.03 | 0.00 | 67 | 1014.0 |
| 20260902174641 | 94 | 232 | 2.0 | 7.0 | 0.00 | 0.03 | 0.00 | 67 | 1014.0 |
| 20260902174140 | 94 | 196 | 2.0 | 8.0 | 0.00 | 0.03 | 0.00 | 68 | 1014.1 |
| 20260902173611 | 94 | 180 | 2.0 | 8.0 | 0.00 | 0.03 | 0.00 | 67 | 1014.3 |
| 20260902173110 | 94 | 178 | 2.0 | 7.0 | 0.00 | 0.03 | 0.00 | 68 | 1014.3 |
| 20260902173029 | 93 | 53 | 2.0 | 7.0 | 0.00 | 0.03 | 0.00 | 69 | 1014.4 |
| 20260902172040 | 93 | 170 | 2.0 | 7.0 | 0.00 | 0.03 | 0.00 | 69 | 1014.5 |
| 20260902171515 | 93 | 166 | 2.0 | 7.0 | 0.00 | 0.03 | 0.00 | 69 | 1014.5 |
| 20260902171002 | 92 | 121 | 2.0 | 7.0 | 0.00 | 0.03 | 0.00 | 70 | 1014.6 |
| 20260902170505 | 92 | 142 | 2.0 | 7.0 | 0.00 | 0.03 | 0.00 | 70 | 1014.7 |
| 20260902165938 | 92 | 282 | 2.0 | 7.0 | 0.00 | 0.03 | 0.00 | 72 | 1014.8 |
| 20260902165655 | 91 | 171 | 1.0 | 5.0 | 0.00 | 0.03 | 0.00 | 75 | 1014.8 |
| 20260902164910 | 91 | 167 | 1.0 | 5.0 | 0.00 | 0.03 | 0.00 | 75 | 1014.8 |
| 20260902164408 | 91 | 284 | 1.0 | 5.0 | 0.00 | 0.03 | 0.00 | 76 | 1014.9 |
| 20260902163843 | 90 | 140 | 1.0 | 7.0 | 0.00 | 0.03 | 0.00 | 77 | 1014.9 |
| 20260902163537 | 89 | 252 | 2.0 | 8.0 | 0.00 | 0.03 | 0.00 | 78 | 1014.9 |
| 20260902162747 | 89 | 225 | 2.0 | 8.0 | 0.00 | 0.03 | 0.00 | 79 | 1014.9 |
| 20260902162246 | 89 | 300 | 1.0 | 5.0 | 0.00 | 0.03 | 0.00 | 81 | 1015.0 |
| 20260902162004 | 88 | 128 | 1.0 | 10.0 | 0.00 | 0.03 | 0.00 | 83 | 1015.0 |
| 20260902161215 | 87 | 191 | 1.0 | 7.0 | 0.00 | 0.03 | 0.00 | 83 | 1015.1 |
| 20260902160649 | 87 | 265 | 1.0 | 7.0 | 0.00 | 0.03 | 0.00 | 85 | 1015.1 |
| 20260902160123 | 86 | 178 | 1.0 | 7.0 | 0.00 | 0.03 | 0.00 | 88 | 1015.0 |
| 20260902155556 | 85 | 188 | 1.0 | 9.0 | 0.00 | 0.03 | 0.00 | 88 | 1015.1 |
| 20260902155034 | 84 | 273 | 1.0 | 6.0 | 0.00 | 0.03 | 0.00 | 88 | 1015.1 |
| 20260902154533 | 84 | 91 | 1.0 | 4.0 | 0.00 | 0.03 | 0.00 | 88 | 1015.1 |
| 20260902154027 | 84 | 146 | 1.0 | 4.0 | 0.00 | 0.03 | 0.00 | 89 | 1015.1 |
| 20260902153529 | 84 | 271 | 1.0 | 4.0 | 0.00 | 0.03 | 0.00 | 89 | 1015.2 |
| 20260902153027 | 83 | 317 | 0.0 | 2.0 | 0.00 | 0.03 | 0.00 | 89 | 1015.2 |
| 20260902152526 | 83 | 193 | 0.0 | 2.0 | 0.00 | 0.03 | 0.00 | 89 | 1015.1 |
| 20260902152027 | 83 | 306 | 0.0 | 6.0 | 0.00 | 0.03 | 0.00 | 90 | 1015.0 |
| 20260902151528 | 83 | 280 | 0.0 | 6.0 | 0.00 | 0.03 | 0.00 | 90 | 1015.1 |
| 20260902151016 | 83 | 333 | 0.0 | 4.0 | 0.00 | 0.03 | 0.00 | 90 | 1015.1 |
| 20260902150516 | 83 | 285 | 1.0 | 3.0 | 0.00 | 0.03 | 0.00 | 91 | 1015.1 |
| 20260902145950 | 83 | 243 | 1.0 | 3.0 | 0.00 | 0.03 | 0.00 | 91 | 1015.2 |
| 20260902145446 | 82 | 223 | 1.0 | 4.0 | 0.00 | 0.03 | 0.00 | 91 | 1015.1 |
| 20260902144920 | 82 | 295 | 1.0 | 4.0 | 0.00 | 0.03 | 0.00 | 92 | 1015.1 |
| 20260902144355 | 82 | 265 | 1.0 | 4.0 | 0.00 | 0.03 | 0.00 | 92 | 1015.1 |
| 20260902143829 | 82 | 273 | 1.0 | 4.0 | 0.00 | 0.03 | 0.00 | 92 | 1015.0 |
| 20260902143316 | 82 | 259 | 1.0 | 4.0 | 0.00 | 0.03 | 0.00 | 92 | 1015.0 |
| 20260902143307 | 82 | 289 | 1.0 | 4.0 | 0.00 | 0.03 | 0.00 | 92 | 1015.0 |
| 20260902142520 | 82 | 243 | 1.0 | 3.0 | 0.00 | 0.03 | 0.00 | 93 | 1015.0 |
| 20260902141750 | 81 | 184 | 1.0 | 2.0 | 0.00 | 0.03 | 0.00 | 93 | 1015.1 |
| 20260902141449 | 81 | 279 | 0.0 | 3.0 | 0.00 | 0.03 | 0.00 | 93 | 1015.0 |
| 20260902140658 | 81 | 274 | 0.0 | 3.0 | 0.00 | 0.03 | 0.00 | 93 | 1015.0 |
| 20260902140132 | 81 | 169 | 1.0 | 3.0 | 0.00 | 0.03 | 0.00 | 94 | 1015.0 |
| 20260902135620 | 81 | 262 | 1.0 | 4.0 | 0.00 | 0.03 | 0.00 | 94 | 1015.0 |
| 20260902135118 | 81 | 206 | 1.0 | 4.0 | 0.00 | 0.03 | 0.00 | 94 | 1014.9 |
| 20260902134618 | 81 | 219 | 1.0 | 4.0 | 0.00 | 0.03 | 0.00 | 94 | 1014.9 |
| 20260902134339 | 80 | 137 | 1.0 | 4.0 | 0.00 | 0.03 | 0.00 | 94 | 1014.9 |
| 20260902133833 | 80 | 238 | 1.0 | 4.0 | 0.00 | 0.03 | 0.00 | 94 | 1014.9 |
| 20260902133108 | 80 | 281 | 1.0 | 5.0 | 0.00 | 0.03 | 0.00 | 94 | 1014.9 |
| 20260902132825 | 80 | 164 | 1.0 | 5.0 | 0.00 | 0.03 | 0.00 | 94 | 1014.9 |
| 20260902132035 | 80 | 221 | 1.0 | 5.0 | 0.00 | 0.03 | 0.00 | 94 | 1014.8 |
| 20260902131533 | 80 | 199 | 1.0 | 3.0 | 0.00 | 0.03 | 0.00 | 94 | 1014.6 |
| 20260902131225 | 80 | 211 | 1.0 | 3.0 | 0.00 | 0.03 | 0.00 | 94 | 1014.6 |
| 20260902130504 | 80 | 190 | 1.0 | 3.0 | 0.00 | 0.03 | 0.00 | 94 | 1014.5 |
| 20260902125936 | 80 | 247 | 1.0 | 7.0 | 0.00 | 0.03 | 0.00 | 94 | 1014.5 |
| 20260902125422 | 80 | 191 | 1.0 | 3.0 | 0.00 | 0.03 | 0.00 | 94 | 1014.4 |
| 20260902124925 | 80 | 265 | 1.0 | 2.0 | 0.00 | 0.03 | 0.00 | 94 | 1014.3 |
| 20260902124421 | 80 | 273 | 0.0 | 4.0 | 0.00 | 0.03 | 0.00 | 94 | 1014.3 |
| 20260902123919 | 80 | 277 | 0.0 | 4.0 | 0.00 | 0.03 | 0.00 | 94 | 1014.2 |
| 20260902123352 | 80 | 196 | 1.0 | 4.0 | 0.00 | 0.03 | 0.00 | 94 | 1014.0 |
| 20260902122826 | 80 | 258 | 0.0 | 4.0 | 0.00 | 0.03 | 0.00 | 94 | 1013.9 |
| 20260902122325 | 80 | 256 | 1.0 | 6.0 | 0.00 | 0.03 | 0.00 | 94 | 1013.8 |
| 20260902121759 | 80 | 291 | 1.0 | 6.0 | 0.00 | 0.03 | 0.00 | 94 | 1013.6 |
| 20260902121233 | 80 | 311 | 1.0 | 4.0 | 0.00 | 0.03 | 0.00 | 93 | 1013.5 |
| 20260902120733 | 80 | 210 | 1.0 | 4.0 | 0.00 | 0.03 | 0.00 | 93 | 1013.4 |
| 20260902120229 | 80 | 243 | 1.0 | 5.0 | 0.00 | 0.03 | 0.00 | 93 | 1013.2 |
| 20260902115729 | 80 | 167 | 1.0 | 5.0 | 0.00 | 0.03 | 0.00 | 93 | 1013.2 |
| 20260902115159 | 80 | 169 | 1.0 | 6.0 | 0.00 | 0.03 | 0.00 | 93 | 1013.1 |
| 20260902114658 | 80 | 200 | 1.0 | 6.0 | 0.00 | 0.03 | 0.00 | 93 | 1013.2 |
| 20260902114158 | 80 | 205 | 2.0 | 6.0 | 0.00 | 0.03 | 0.00 | 93 | 1013.2 |
| 20260902113632 | 80 | 128 | 1.0 | 6.0 | 0.00 | 0.03 | 0.00 | 93 | 1013.2 |
| 20260902113335 | 80 | 176 | 1.0 | 4.0 | 0.00 | 0.03 | 0.00 | 93 | 1013.2 |
| 20260902112544 | 80 | 200 | 1.0 | 6.0 | 0.00 | 0.03 | 0.00 | 93 | 1013.2 |
| 20260902112017 | 80 | 190 | 1.0 | 6.0 | 0.00 | 0.03 | 0.00 | 92 | 1013.2 |
| 20260902111453 | 80 | 273 | 1.0 | 4.0 | 0.00 | 0.03 | 0.00 | 92 | 1013.0 |
| 20260902110949 | 80 | 217 | 1.0 | 4.0 | 0.00 | 0.03 | 0.00 | 92 | 1013.0 |
| 20260902110425 | 80 | 60 | 1.0 | 6.0 | 0.00 | 0.03 | 0.00 | 92 | 1013.0 |
| 20260902105901 | 80 | 195 | 1.0 | 6.0 | 0.00 | 0.03 | 0.00 | 92 | 1013.0 |
| 20260902105359 | 80 | 160 | 1.0 | 4.0 | 0.00 | 0.03 | 0.00 | 92 | 1013.1 |
| 20260902104833 | 80 | 211 | 1.0 | 4.0 | 0.00 | 0.03 | 0.00 | 92 | 1013.1 |
| 20260902104306 | 80 | 265 | 1.0 | 4.0 | 0.00 | 0.03 | 0.00 | 91 | 1013.2 |
| 20260902104028 | 80 | 254 | 0.0 | 4.0 | 0.00 | 0.03 | 0.00 | 91 | 1013.3 |
| 20260902103301 | 81 | 244 | 1.0 | 4.0 | 0.00 | 0.03 | 0.00 | 91 | 1013.3 |
| 20260902102957 | 80 | 191 | 1.0 | 4.0 | 0.00 | 0.03 | 0.00 | 91 | 1013.2 |
| 20260902102235 | 81 | 182 | 1.0 | 3.0 | 0.00 | 0.03 | 0.00 | 91 | 1013.2 |
| 20260902101736 | 81 | 190 | 1.0 | 6.0 | 0.00 | 0.03 | 0.00 | 91 | 1013.2 |
| 20260902101237 | 81 | 189 | 1.0 | 6.0 | 0.00 | 0.03 | 0.00 | 91 | 1013.2 |
| 20260902100711 | 81 | 211 | 1.0 | 6.0 | 0.00 | 0.03 | 0.00 | 90 | 1013.2 |
| 20260902100436 | 81 | 196 | 0.0 | 4.0 | 0.00 | 0.03 | 0.00 | 90 | 1013.2 |
| 20260902095648 | 81 | 320 | 0.0 | 3.0 | 0.00 | 0.03 | 0.00 | 90 | 1013.2 |
| 20260902095125 | 81 | 230 | 0.0 | 5.0 | 0.00 | 0.03 | 0.00 | 90 | 1013.3 |
| 20260902094559 | 81 | 223 | 0.0 | 3.0 | 0.00 | 0.03 | 0.00 | 90 | 1013.2 |
| 20260902094303 | 81 | 250 | 1.0 | 4.0 | 0.00 | 0.03 | 0.00 | 89 | 1013.1 |
| 20260902093536 | 81 | 172 | 1.0 | 5.0 | 0.00 | 0.03 | 0.00 | 89 | 1013.1 |
| 20260902093012 | 81 | 226 | 1.0 | 5.0 | 0.00 | 0.03 | 0.00 | 89 | 1013.1 |
| 20260902092501 | 81 | 181 | 1.0 | 5.0 | 0.00 | 0.03 | 0.00 | 89 | 1013.1 |
| 20260902092000 | 81 | 169 | 1.0 | 4.0 | 0.00 | 0.03 | 0.00 | 89 | 1013.1 |
| 20260902091434 | 81 | 325 | 1.0 | 6.0 | 0.00 | 0.03 | 0.00 | 89 | 1013.1 |
| 20260902090932 | 81 | 269 | 1.0 | 6.0 | 0.00 | 0.03 | 0.00 | 89 | 1013.1 |
| 20260902090430 | 81 | 298 | 1.0 | 5.0 | 0.00 | 0.03 | 0.00 | 89 | 1013.1 |
| 20260902085933 | 81 | 208 | 1.0 | 5.0 | 0.00 | 0.03 | 0.00 | 89 | 1013.0 |
| 20260902085409 | 81 | 149 | 1.0 | 7.0 | 0.00 | 0.03 | 0.00 | 88 | 1013.0 |
| 20260902084844 | 81 | 194 | 0.0 | 7.0 | 0.00 | 0.03 | 0.00 | 88 | 1013.0 |
| 20260902084323 | 81 | 302 | 0.0 | 4.0 | 0.00 | 0.03 | 0.00 | 88 | 1013.1 |
| 20260902083823 | 81 | 165 | 0.0 | 3.0 | 0.00 | 0.03 | 0.00 | 88 | 1013.1 |
| 20260902083321 | 81 | 234 | 1.0 | 3.0 | 0.00 | 0.03 | 0.00 | 87 | 1013.0 |
| 20260902082822 | 81 | 175 | 1.0 | 5.0 | 0.00 | 0.03 | 0.00 | 87 | 1013.0 |
| 20260902082302 | 81 | 261 | 1.0 | 5.0 | 0.00 | 0.03 | 0.00 | 87 | 1013.0 |
| 20260902081804 | 81 | 231 | 1.0 | 4.0 | 0.00 | 0.03 | 0.00 | 87 | 1013.0 |
| 20260902081246 | 81 | 222 | 1.0 | 5.0 | 0.00 | 0.03 | 0.00 | 86 | 1013.0 |
| 20260902080746 | 81 | 229 | 1.0 | 5.0 | 0.00 | 0.03 | 0.00 | 86 | 1013.0 |
| 20260902080229 | 81 | 217 | 1.0 | 4.0 | 0.00 | 0.03 | 0.00 | 86 | 1013.1 |
| 20260902075731 | 81 | 281 | 1.0 | 4.0 | 0.00 | 0.03 | 0.00 | 86 | 1013.1 |
| 20260902075208 | 81 | 272 | 1.0 | 3.0 | 0.00 | 0.03 | 0.00 | 85 | 1013.1 |
| 20260902074648 | 80 | 153 | 1.0 | 3.0 | 0.00 | 0.03 | 0.00 | 85 | 1013.1 |
| 20260902074149 | 80 | 211 | 0.0 | 3.0 | 0.00 | 0.03 | 0.00 | 85 | 1013.1 |
| 20260902073650 | 80 | 209 | 1.0 | 4.0 | 0.00 | 0.03 | 0.00 | 85 | 1013.1 |
| 20260902073148 | 80 | 262 | 0.0 | 4.0 | 0.00 | 0.03 | 0.00 | 85 | 1013.1 |
| 20260902072627 | 80 | 178 | 0.0 | 2.0 | 0.00 | 0.03 | 0.00 | 85 | 1013.1 |
| 20260902072355 | 80 | 167 | 0.0 | 2.0 | 0.00 | 0.03 | 0.00 | 86 | 1013.2 |
| 20260902071610 | 80 | 166 | 0.0 | 2.0 | 0.00 | 0.03 | 0.00 | 86 | 1013.3 |
| 20260902071601 | 80 | 243 | 0.0 | 2.0 | 0.00 | 0.03 | 0.00 | 86 | 1013.3 |
| 20260902070608 | 80 | 246 | 0.0 | 2.0 | 0.00 | 0.03 | 0.00 | 86 | 1013.4 |
| 20260902070109 | 80 | 244 | 0.0 | 2.0 | 0.00 | 0.03 | 0.00 | 87 | 1013.3 |
| 20260902070044 | 80 | 215 | 0.0 | 2.0 | 0.00 | 0.03 | 0.00 | 87 | 1013.3 |
| 20260902065731 | 80 | 217 | 0.0 | 2.0 | 0.00 | 0.03 | 0.00 | 87 | 1013.3 |
| 20260902064517 | 80 | 218 | 0.0 | 2.0 | 0.00 | 0.03 | 0.00 | 87 | 1013.3 |
| 20260902064015 | 80 | 209 | 0.0 | 1.0 | 0.00 | 0.03 | 0.00 | 87 | 1013.4 |
| 20260902063501 | 80 | 209 | 0.0 | 1.0 | 0.00 | 0.03 | 0.00 | 87 | 1013.4 |
| 20260902062956 | 80 | 209 | 0.0 | 1.0 | 0.00 | 0.03 | 0.00 | 87 | 1013.3 |
| 20260902062723 | 80 | 209 | 0.0 | 1.0 | 0.00 | 0.03 | 0.00 | 87 | 1013.3 |